Time;durP1;ratioP1;P1;durP2;ratioP2;P2;SDS_P1;SDS_P2;PMS_P1;PMS_P2;Temp;Humidity;BMP_temperature;BMP_pressure;BME280_temperature;BME280_humidity;BME280_pressure;Samples;Min_cycle;Max_cycle;Signal;HPM_P1;HPM_P2
2021/12/02 00:01:19;;;;;;;9.03;5.53;;;5.10;99.90;;;;;;5078775;28;20200;-47
2021/12/02 00:03:46;;;;;;;7.40;5.17;;;5.10;99.90;;;;;;5078876;28;20176;-46
2021/12/02 00:06:17;;;;;;;7.90;5.53;;;5.10;99.90;;;;;;5077514;28;20185;-48
2021/12/02 00:08:43;;;;;;;11.07;5.50;;;5.10;99.90;;;;;;5058495;28;20177;-45
2021/12/02 00:11:09;;;;;;;13.80;6.20;;;5.10;99.90;;;;;;5076614;28;20222;-47
2021/12/02 00:16:24;;;;;;;9.67;5.57;;;5.00;99.90;;;;;;5078495;28;20164;-47
2021/12/02 00:21:18;;;;;;;11.07;6.13;;;5.00;99.90;;;;;;5083588;23;20244;-43
2021/12/02 00:24:07;;;;;;;12.97;6.40;;;5.00;99.90;;;;;;5056571;28;20576;-43
2021/12/02 00:26:35;;;;;;;13.37;6.00;;;5.00;99.90;;;;;;5056796;28;20196;-42
2021/12/02 00:29:03;;;;;;;11.40;5.93;;;5.00;99.90;;;;;;5056123;28;20175;-43
2021/12/02 00:31:32;;;;;;;12.03;6.13;;;5.00;99.90;;;;;;5056192;28;20209;-44
2021/12/02 00:34:06;;;;;;;12.20;5.83;;;5.00;99.90;;;;;;5056179;28;20171;-42
2021/12/02 00:36:34;;;;;;;10.53;6.00;;;5.00;99.90;;;;;;5056395;28;20157;-43
2021/12/02 00:39:05;;;;;;;12.63;6.17;;;5.00;99.90;;;;;;5055937;28;20180;-44
2021/12/02 00:41:30;;;;;;;8.83;5.60;;;5.00;99.90;;;;;;5056445;28;20200;-41
2021/12/02 00:43:57;;;;;;;10.73;5.23;;;5.10;99.90;;;;;;5055884;28;20230;-43
2021/12/02 00:46:25;;;;;;;10.13;5.13;;;5.10;99.90;;;;;;5056116;28;20203;-42
2021/12/02 00:48:51;;;;;;;8.63;5.00;;;5.10;99.90;;;;;;5055627;28;20268;-43
2021/12/02 00:51:18;;;;;;;9.30;4.57;;;5.00;99.90;;;;;;5056159;28;20300;-43
2021/12/02 00:53:51;;;;;;;9.03;5.23;;;5.10;99.90;;;;;;5055810;28;20176;-44
2021/12/02 00:56:17;;;;;;;8.90;4.43;;;5.10;99.90;;;;;;5055718;28;20173;-43
2021/12/02 00:58:47;;;;;;;7.37;5.07;;;5.10;99.90;;;;;;5055561;28;20177;-40
2021/12/02 01:01:14;;;;;;;9.97;5.60;;;5.10;99.90;;;;;;5055473;28;20243;-41
2021/12/02 01:03:40;;;;;;;9.07;4.73;;;5.10;99.90;;;;;;5055706;28;20180;-41
2021/12/02 01:06:06;;;;;;;8.90;5.30;;;5.10;99.90;;;;;;5055093;28;20183;-43
2021/12/02 01:08:34;;;;;;;7.83;4.90;;;5.10;99.90;;;;;;5055440;28;20200;-41
2021/12/02 01:11:00;;;;;;;8.67;5.00;;;5.10;99.90;;;;;;5055136;28;20224;-43
2021/12/02 01:13:25;;;;;;;10.40;5.53;;;5.10;99.90;;;;;;5055863;28;20633;-42
2021/12/02 01:15:51;;;;;;;11.93;5.67;;;5.10;99.90;;;;;;5055140;28;20170;-41
2021/12/02 01:18:17;;;;;;;9.17;5.93;;;5.10;99.90;;;;;;5037376;28;20184;-40
2021/12/02 01:20:46;;;;;;;9.53;5.77;;;5.10;99.90;;;;;;5055432;28;20588;-41
2021/12/02 01:23:12;;;;;;;8.00;5.67;;;5.10;99.90;;;;;;5055100;28;20163;-40
2021/12/02 01:25:39;;;;;;;9.17;5.47;;;5.20;99.90;;;;;;5055048;28;20543;-41
2021/12/02 01:28:05;;;;;;;11.80;6.53;;;5.10;99.90;;;;;;5037047;28;20200;-39
2021/12/02 01:30:32;;;;;;;8.33;5.67;;;5.20;99.90;;;;;;5055010;28;20251;-40
2021/12/02 01:33:04;;;;;;;9.77;6.03;;;5.10;99.90;;;;;;5054823;28;20252;-40
2021/12/02 01:35:31;;;;;;;9.90;5.87;;;5.20;99.90;;;;;;5054837;28;20176;-42
2021/12/02 01:37:57;;;;;;;10.53;5.80;;;5.20;99.90;;;;;;5054804;28;20165;-41
2021/12/02 01:40:24;;;;;;;10.27;6.30;;;5.20;99.90;;;;;;5020595;28;20601;-39
2021/12/02 01:42:55;;;;;;;9.20;6.83;;;5.20;99.90;;;;;;5054681;28;20677;-40
2021/12/02 01:45:27;;;;;;;12.20;6.30;;;5.20;99.90;;;;;;5054929;28;20236;-43
2021/12/02 01:47:55;;;;;;;10.97;6.90;;;5.20;99.90;;;;;;5054903;28;20242;-42
2021/12/02 01:50:23;;;;;;;9.33;5.67;;;5.20;99.90;;;;;;5036714;28;20670;-42
2021/12/02 01:53:00;;;;;;;13.20;6.33;;;5.20;99.90;;;;;;5054496;28;20208;-44
2021/12/02 01:55:28;;;;;;;7.77;5.47;;;5.20;99.90;;;;;;5054747;28;20195;-42
2021/12/02 01:57:59;;;;;;;10.07;6.23;;;5.20;99.90;;;;;;5054314;28;20191;-41
2021/12/02 02:00:33;;;;;;;9.77;5.97;;;5.20;99.90;;;;;;5054436;28;20280;-42
2021/12/02 02:03:03;;;;;;;10.40;5.90;;;5.20;99.90;;;;;;5036490;28;20230;-40
2021/12/02 02:05:31;;;;;;;9.63;5.73;;;5.20;99.90;;;;;;5054359;28;20194;-41
2021/12/02 02:08:21;;;;;;;9.77;6.37;;;5.20;99.90;;;;;;5054467;28;20176;-43
2021/12/02 02:10:47;;;;;;;7.23;4.40;;;5.20;99.90;;;;;;5054712;28;20164;-39
2021/12/02 02:13:14;;;;;;;10.17;4.90;;;5.20;99.90;;;;;;5054110;28;20682;-44
2021/12/02 02:15:45;;;;;;;11.83;5.57;;;5.20;99.90;;;;;;5036322;28;20600;-41
2021/12/02 02:18:16;;;;;;;13.47;5.67;;;5.20;99.90;;;;;;5053683;28;20164;-42
2021/12/02 02:21:03;;;;;;;9.03;5.80;;;5.20;99.90;;;;;;5054214;28;20193;-43
2021/12/02 02:23:32;;;;;;;11.10;6.00;;;5.20;99.90;;;;;;5054432;28;20255;-44
2021/12/02 02:25:59;;;;;;;9.23;5.77;;;5.20;99.90;;;;;;5054262;28;20592;-42
2021/12/02 02:28:26;;;;;;;7.80;4.87;;;5.20;99.90;;;;;;5036160;28;20199;-42
2021/12/02 02:30:52;;;;;;;8.23;4.80;;;5.10;99.90;;;;;;5053938;28;20550;-42
2021/12/02 02:33:19;;;;;;;12.23;4.30;;;5.10;99.90;;;;;;5054074;28;20231;-41
2021/12/02 02:35:46;;;;;;;10.70;4.87;;;5.10;99.90;;;;;;5053807;28;20172;-41
2021/12/02 02:38:14;;;;;;;15.00;6.30;;;5.10;99.90;;;;;;5036057;28;20178;-41
2021/12/02 02:40:42;;;;;;;8.90;4.80;;;5.10;99.90;;;;;;5053867;28;20180;-41
2021/12/02 02:43:09;;;;;;;7.93;4.87;;;5.10;99.90;;;;;;5053891;28;20221;-40
2021/12/02 02:45:36;;;;;;;9.43;4.80;;;5.10;99.90;;;;;;5053608;28;20181;-44
2021/12/02 02:48:02;;;;;;;10.53;5.40;;;5.10;99.90;;;;;;5053593;28;20188;-41
2021/12/02 02:50:31;;;;;;;9.17;5.27;;;5.10;99.90;;;;;;5053420;28;20195;-43
2021/12/02 02:53:05;;;;;;;8.87;4.57;;;5.10;99.90;;;;;;5053442;28;20620;-43
2021/12/02 02:55:34;;;;;;;11.17;5.23;;;5.10;99.90;;;;;;5053470;28;20196;-42
2021/12/02 03:00:31;;;;;;;8.77;5.13;;;5.10;99.90;;;;;;5053833;28;20188;-41
2021/12/02 03:03:49;;;;;;;6.50;3.87;;;5.00;99.90;;;;;;5053715;28;20172;-44
2021/12/02 03:09:05;;;;;;;8.53;4.80;;;5.00;99.90;;;;;;4972984;28;20191;-46
2021/12/02 03:11:40;;;;;;;11.07;5.57;;;5.10;99.90;;;;;;4972985;28;20736;-45
2021/12/02 03:14:11;;;;;;;12.43;5.07;;;5.00;99.90;;;;;;5012803;28;20191;-46
2021/12/02 03:16:44;;;;;;;6.50;4.90;;;5.00;99.90;;;;;;5054107;28;20171;-47
2021/12/02 03:19:30;;;;;;;10.23;5.07;;;5.00;99.90;;;;;;5053657;28;20240;-47
2021/12/02 03:21:57;;;;;;;8.17;4.70;;;5.00;99.90;;;;;;5052878;28;20231;-48
2021/12/02 03:24:23;;;;;;;9.80;5.30;;;5.00;99.90;;;;;;5053816;28;20220;-48
2021/12/02 03:26:50;;;;;;;8.73;4.53;;;5.00;99.90;;;;;;5053474;28;20230;-46
2021/12/02 03:29:16;;;;;;;13.60;5.20;;;5.00;99.90;;;;;;5053831;28;20190;-46
2021/12/02 03:31:41;;;;;;;8.73;4.90;;;5.00;99.90;;;;;;5056851;28;20297;-49
2021/12/02 03:34:08;;;;;;;9.70;4.63;;;5.00;99.90;;;;;;5039963;28;20180;-47
2021/12/02 03:36:34;;;;;;;8.03;4.57;;;4.90;99.90;;;;;;5057765;28;20237;-48
2021/12/02 03:39:02;;;;;;;7.20;4.50;;;4.90;99.90;;;;;;5057973;28;20172;-48
2021/12/02 03:41:28;;;;;;;10.63;4.27;;;4.90;99.90;;;;;;5057718;28;20298;-47
2021/12/02 03:43:54;;;;;;;7.70;4.83;;;4.90;99.90;;;;;;5039846;28;20184;-47
2021/12/02 03:46:23;;;;;;;9.67;4.90;;;4.80;99.90;;;;;;5057814;28;20180;-48
2021/12/02 03:48:50;;;;;;;6.67;3.60;;;4.80;99.90;;;;;;5057637;28;20179;-47
2021/12/02 03:51:17;;;;;;;5.60;4.03;;;4.70;99.90;;;;;;5039622;28;20200;-48
2021/12/02 03:53:43;;;;;;;5.33;3.63;;;4.70;99.90;;;;;;5057823;28;20181;-48
2021/12/02 03:56:09;;;;;;;5.80;3.50;;;4.60;99.90;;;;;;5058044;28;20182;-46
2021/12/02 03:58:36;;;;;;;4.90;3.23;;;4.60;99.90;;;;;;5057995;28;20203;-46
2021/12/02 04:01:03;;;;;;;9.23;3.57;;;4.50;99.90;;;;;;5057995;28;20619;-46
2021/12/02 04:03:29;;;;;;;8.87;3.27;;;4.50;99.90;;;;;;5058277;28;20556;-45
2021/12/02 04:05:55;;;;;;;4.63;2.60;;;4.50;99.90;;;;;;5057799;28;20214;-48
2021/12/02 04:08:28;;;;;;;3.20;2.17;;;4.50;99.90;;;;;;5057670;28;20590;-47
2021/12/02 04:10:59;;;;;;;5.13;2.23;;;4.40;99.90;;;;;;5057270;28;20206;-47
2021/12/02 04:13:30;;;;;;;3.30;2.07;;;4.40;99.90;;;;;;5057761;28;20197;-48
2021/12/02 04:16:00;;;;;;;6.87;2.67;;;4.40;99.90;;;;;;5057811;28;20176;-47
2021/12/02 04:18:26;;;;;;;3.00;2.00;;;4.40;99.90;;;;;;5058018;28;20497;-48
2021/12/02 04:20:51;;;;;;;4.27;1.70;;;4.40;99.90;;;;;;5056996;28;20204;-48
2021/12/02 04:23:17;;;;;;;5.13;2.03;;;4.40;99.90;;;;;;5057284;28;20620;-47
2021/12/02 04:25:43;;;;;;;4.67;1.90;;;4.40;99.90;;;;;;5056902;28;20261;-46
2021/12/02 04:28:09;;;;;;;4.23;1.87;;;4.40;99.90;;;;;;5057245;28;20187;-48
2021/12/02 04:30:34;;;;;;;4.07;1.80;;;4.30;99.90;;;;;;5039050;28;20186;-46
2021/12/02 04:33:00;;;;;;;3.10;1.27;;;4.30;99.90;;;;;;5057188;28;20210;-48
2021/12/02 04:35:26;;;;;;;3.97;1.90;;;4.30;99.90;;;;;;5057045;28;20203;-47
2021/12/02 04:37:52;;;;;;;5.20;1.87;;;4.30;99.90;;;;;;5056888;28;20684;-47
2021/12/02 04:40:20;;;;;;;5.00;1.73;;;4.20;99.90;;;;;;5056926;28;20227;-49
2021/12/02 04:42:46;;;;;;;5.37;1.87;;;4.20;99.90;;;;;;5057559;28;20208;-47
2021/12/02 04:45:13;;;;;;;3.30;1.43;;;4.20;99.90;;;;;;5056772;28;20210;-48
2021/12/02 04:47:39;;;;;;;5.03;1.63;;;4.20;99.90;;;;;;5056887;28;20176;-47
2021/12/02 04:50:07;;;;;;;3.40;1.70;;;4.20;99.90;;;;;;5056669;28;20200;-46
2021/12/02 04:52:33;;;;;;;6.60;1.20;;;4.10;99.90;;;;;;5056936;28;20204;-48
2021/12/02 04:54:59;;;;;;;6.13;1.17;;;4.20;99.90;;;;;;5056790;28;20176;-49
2021/12/02 04:57:25;;;;;;;5.83;1.60;;;4.10;99.90;;;;;;5056833;28;20235;-48
2021/12/02 04:59:50;;;;;;;4.60;1.43;;;4.10;99.90;;;;;;5038945;28;20662;-46
2021/12/02 05:02:16;;;;;;;5.43;1.53;;;4.10;99.90;;;;;;5056182;28;20200;-47
2021/12/02 05:04:41;;;;;;;3.77;1.17;;;4.10;99.90;;;;;;5056398;28;20201;-47
2021/12/02 05:07:07;;;;;;;3.27;1.40;;;4.10;99.90;;;;;;5056343;28;20543;-48
2021/12/02 05:09:33;;;;;;;4.17;1.47;;;4.10;99.90;;;;;;5056605;28;20180;-47
2021/12/02 05:11:58;;;;;;;5.23;1.50;;;4.10;99.90;;;;;;5056032;28;20638;-48
2021/12/02 05:14:24;;;;;;;4.93;1.63;;;4.10;99.90;;;;;;5056024;28;20182;-49
2021/12/02 05:16:49;;;;;;;7.23;1.40;;;4.10;99.90;;;;;;5056948;28;20276;-47
2021/12/02 05:19:15;;;;;;;3.67;1.43;;;4.10;99.90;;;;;;5038322;28;20189;-47
2021/12/02 05:21:40;;;;;;;6.07;1.70;;;4.10;99.90;;;;;;5056181;28;20226;-47
2021/12/02 05:24:06;;;;;;;4.50;1.70;;;4.10;99.90;;;;;;5056397;28;20191;-46
2021/12/02 05:26:33;;;;;;;3.70;1.53;;;4.10;99.90;;;;;;5056772;28;20255;-47
2021/12/02 05:28:59;;;;;;;9.83;1.73;;;4.10;99.90;;;;;;5055744;28;20212;-46
2021/12/02 05:31:24;;;;;;;5.80;1.57;;;4.10;99.90;;;;;;5055997;28;20234;-48
2021/12/02 05:33:50;;;;;;;6.37;1.70;;;4.10;99.90;;;;;;5055731;28;20205;-45
2021/12/02 05:36:16;;;;;;;5.07;1.77;;;4.10;99.90;;;;;;5055662;28;20184;-47
2021/12/02 05:38:42;;;;;;;4.07;2.20;;;4.10;99.90;;;;;;5055954;28;20338;-48
2021/12/02 05:41:07;;;;;;;8.50;2.33;;;4.10;99.90;;;;;;5055586;28;20204;-46
2021/12/02 05:43:34;;;;;;;7.00;2.30;;;4.10;99.90;;;;;;5055655;28;20642;-46
2021/12/02 05:46:00;;;;;;;5.37;2.20;;;4.00;99.90;;;;;;5055532;28;20187;-46
2021/12/02 05:48:25;;;;;;;7.80;2.40;;;4.00;99.90;;;;;;5055829;28;20264;-47
2021/12/02 05:50:51;;;;;;;2.67;1.80;;;4.00;99.90;;;;;;5055832;28;20238;-47
2021/12/02 05:53:17;;;;;;;8.57;2.13;;;4.00;99.90;;;;;;5036482;28;20212;-46
2021/12/02 05:55:44;;;;;;;3.70;1.73;;;4.00;99.90;;;;;;5055715;28;20204;-46
2021/12/02 05:58:13;;;;;;;6.43;1.80;;;3.90;99.90;;;;;;5038000;28;20179;-46
2021/12/02 06:00:40;;;;;;;6.27;1.47;;;4.00;99.90;;;;;;5037435;28;20184;-48
2021/12/02 06:03:06;;;;;;;12.00;2.10;;;3.90;99.90;;;;;;5055284;28;20177;-48
2021/12/02 06:05:32;;;;;;;5.03;1.67;;;3.90;99.90;;;;;;5055092;28;20181;-47
2021/12/02 06:07:59;;;;;;;4.37;1.50;;;3.90;99.90;;;;;;5055022;28;20273;-47
2021/12/02 06:10:26;;;;;;;5.37;2.03;;;3.90;99.90;;;;;;5055105;28;20192;-49
2021/12/02 06:12:51;;;;;;;7.03;1.60;;;3.90;99.90;;;;;;5054707;28;20296;-46
2021/12/02 06:15:18;;;;;;;10.90;2.10;;;3.90;99.90;;;;;;5055004;28;20273;-48
2021/12/02 06:17:44;;;;;;;3.17;1.90;;;3.90;99.90;;;;;;5055211;28;20172;-48
2021/12/02 06:20:11;;;;;;;5.17;2.00;;;3.80;99.90;;;;;;5036848;28;20191;-46
2021/12/02 06:22:37;;;;;;;6.60;2.00;;;3.80;99.90;;;;;;5054164;28;20231;-46
2021/12/02 06:27:46;;;;;;;6.37;1.73;;;3.80;99.90;;;;;;5053947;28;20168;-46
2021/12/02 06:30:13;;;;;;;9.07;1.90;;;3.80;99.90;;;;;;5053986;28;20187;-48
2021/12/02 06:32:39;;;;;;;7.27;1.80;;;3.80;99.90;;;;;;5035806;28;20299;-47
2021/12/02 06:35:14;;;;;;;7.60;2.00;;;3.70;99.90;;;;;;5054038;28;20267;-41
2021/12/02 06:37:40;;;;;;;1.90;1.30;;;3.70;99.90;;;;;;5037163;28;20705;-42
2021/12/02 06:40:07;;;;;;;2.67;1.23;;;3.70;99.90;;;;;;5035953;28;20267;-42
2021/12/02 06:42:33;;;;;;;2.27;1.30;;;3.70;99.90;;;;;;5053962;28;20207;-43
2021/12/02 06:44:59;;;;;;;2.30;1.03;;;3.70;99.90;;;;;;5053893;28;20181;-42
2021/12/02 06:47:31;;;;;;;3.00;1.10;;;3.60;99.90;;;;;;5053813;28;20188;-42
2021/12/02 06:50:00;;;;;;;1.10;0.93;;;3.30;99.90;;;;;;5053938;28;20210;-42
2021/12/02 06:52:27;;;;;;;5.93;1.70;;;3.20;99.90;;;;;;5053275;28;20551;-45
2021/12/02 06:54:53;;;;;;;3.60;1.40;;;3.10;99.90;;;;;;5054026;28;20180;-43
2021/12/02 06:57:19;;;;;;;5.03;1.73;;;3.00;99.90;;;;;;5053262;28;20263;-42
2021/12/02 06:59:45;;;;;;;2.40;1.90;;;3.00;99.90;;;;;;5053699;28;20234;-42
2021/12/02 07:02:10;;;;;;;4.80;2.00;;;3.00;99.90;;;;;;5053531;28;20211;-41
2021/12/02 07:04:36;;;;;;;2.80;2.03;;;2.90;99.90;;;;;;5053701;28;20639;-43
2021/12/02 07:07:02;;;;;;;3.60;2.53;;;3.00;99.90;;;;;;5053654;28;20181;-42
2021/12/02 07:09:27;;;;;;;7.60;2.73;;;3.00;99.90;;;;;;5053224;28;20246;-41
2021/12/02 07:11:53;;;;;;;5.70;3.37;;;3.00;99.90;;;;;;5053122;28;20575;-44
2021/12/02 07:14:20;;;;;;;5.23;3.20;;;3.10;99.90;;;;;;5053185;28;20544;-42
2021/12/02 07:16:46;;;;;;;6.90;3.60;;;3.10;99.90;;;;;;5053318;28;20255;-44
2021/12/02 07:19:12;;;;;;;7.53;3.90;;;3.10;99.90;;;;;;5035233;28;20276;-41
2021/12/02 07:21:40;;;;;;;7.17;3.97;;;3.20;99.90;;;;;;5052810;28;20223;-41
2021/12/02 07:24:07;;;;;;;7.03;3.70;;;3.20;99.90;;;;;;5053300;28;20190;-43
2021/12/02 07:26:34;;;;;;;6.00;3.83;;;3.20;99.90;;;;;;5053559;28;20253;-42
2021/12/02 07:29:00;;;;;;;4.67;3.37;;;3.20;99.90;;;;;;5053095;28;20207;-41
2021/12/02 07:31:31;;;;;;;5.43;3.50;;;3.30;99.90;;;;;;5052870;28;20200;-41
2021/12/02 07:33:57;;;;;;;5.57;3.40;;;3.20;99.90;;;;;;5053254;28;20184;-42
2021/12/02 07:36:24;;;;;;;4.97;3.60;;;3.20;99.90;;;;;;5052924;28;20176;-42
2021/12/02 07:38:50;;;;;;;6.10;3.80;;;3.20;99.90;;;;;;5035130;28;20211;-42
2021/12/02 07:41:15;;;;;;;8.07;3.83;;;3.20;99.90;;;;;;5035140;28;20215;-42
2021/12/02 07:43:41;;;;;;;13.20;5.73;;;3.20;99.90;;;;;;5052912;28;20172;-40
2021/12/02 07:46:07;;;;;;;4.23;3.20;;;3.20;99.90;;;;;;5053125;28;20206;-41
2021/12/02 07:48:34;;;;;;;7.20;3.90;;;3.20;99.90;;;;;;5053035;28;20181;-44
2021/12/02 07:51:02;;;;;;;5.27;3.50;;;3.20;99.90;;;;;;5052846;28;20257;-41
2021/12/02 07:53:28;;;;;;;3.30;3.00;;;3.20;99.90;;;;;;5052621;28;20668;-43
2021/12/02 07:55:55;;;;;;;10.50;3.40;;;3.20;99.90;;;;;;5052681;28;20190;-41
2021/12/02 07:58:23;;;;;;;4.07;3.00;;;3.10;99.90;;;;;;5053272;28;20622;-40
2021/12/02 08:00:49;;;;;;;4.27;2.90;;;3.10;99.90;;;;;;5052653;28;20175;-44
2021/12/02 08:03:16;;;;;;;3.67;2.40;;;3.10;99.90;;;;;;5052923;28;20544;-42
2021/12/02 08:05:42;;;;;;;3.10;2.80;;;3.10;99.90;;;;;;5034727;28;20668;-43
2021/12/02 08:08:08;;;;;;;4.93;3.23;;;3.00;99.90;;;;;;5052583;28;20275;-46
2021/12/02 08:10:34;;;;;;;5.03;3.03;;;3.00;99.90;;;;;;5034617;28;20216;-47
2021/12/02 08:13:02;;;;;;;6.00;3.77;;;3.00;99.90;;;;;;5052721;28;20220;-46
2021/12/02 08:15:29;;;;;;;4.27;2.87;;;3.00;99.90;;;;;;5052627;28;20497;-47
2021/12/02 08:17:57;;;;;;;3.80;3.37;;;3.10;99.90;;;;;;5056035;28;20192;-45
2021/12/02 08:20:24;;;;;;;4.70;3.27;;;3.10;99.90;;;;;;5056477;28;20180;-46
2021/12/02 08:22:50;;;;;;;5.13;2.77;;;3.10;99.90;;;;;;5038412;28;20230;-46
2021/12/02 08:25:16;;;;;;;3.60;2.40;;;3.10;99.90;;;;;;5056413;28;20176;-46
2021/12/02 08:27:42;;;;;;;2.33;2.13;;;3.10;99.90;;;;;;5056054;28;20184;-46
2021/12/02 08:30:11;;;;;;;4.03;2.47;;;3.10;99.90;;;;;;5056357;28;20187;-48
2021/12/02 08:32:40;;;;;;;2.30;2.03;;;3.10;99.90;;;;;;5056097;28;20265;-47
2021/12/02 08:35:07;;;;;;;2.90;2.33;;;3.10;99.90;;;;;;5055972;28;20173;-49
2021/12/02 08:37:38;;;;;;;3.33;2.80;;;3.10;99.90;;;;;;5055827;28;20234;-47
2021/12/02 08:40:04;;;;;;;3.67;2.90;;;3.10;99.90;;;;;;5056160;28;20164;-48
2021/12/02 08:42:33;;;;;;;3.47;3.17;;;3.10;99.90;;;;;;5055747;28;20283;-47
2021/12/02 08:45:00;;;;;;;5.80;3.00;;;3.20;99.90;;;;;;5055966;28;20183;-45
2021/12/02 08:47:28;;;;;;;3.30;2.97;;;3.20;99.90;;;;;;5055630;28;20217;-48
2021/12/02 08:49:55;;;;;;;6.60;3.53;;;3.10;99.90;;;;;;5055712;28;20172;-47
2021/12/02 08:52:26;;;;;;;7.57;3.10;;;3.10;99.90;;;;;;5056078;28;20212;-47
2021/12/02 08:54:53;;;;;;;3.47;2.33;;;3.10;99.90;;;;;;5055586;28;20669;-45
2021/12/02 08:57:22;;;;;;;4.33;2.90;;;3.10;99.90;;;;;;5055797;28;20226;-47
2021/12/02 08:59:48;;;;;;;4.57;2.90;;;3.10;99.90;;;;;;5055481;28;20223;-46
2021/12/02 09:02:15;;;;;;;2.40;1.63;;;3.20;99.90;;;;;;5055398;28;20551;-45
2021/12/02 09:04:42;;;;;;;3.10;2.80;;;3.20;99.90;;;;;;5055704;28;20180;-48
2021/12/02 09:07:08;;;;;;;4.13;2.50;;;3.20;99.90;;;;;;5055666;28;20177;-48
2021/12/02 09:09:35;;;;;;;3.70;2.70;;;3.20;99.90;;;;;;5055298;28;20199;-45
2021/12/02 09:12:01;;;;;;;3.97;2.90;;;3.20;99.90;;;;;;5055231;28;20216;-46
2021/12/02 09:14:27;;;;;;;3.17;2.83;;;3.20;99.90;;;;;;5055669;28;20497;-49
2021/12/02 09:16:52;;;;;;;2.80;2.53;;;3.20;99.90;;;;;;5055207;28;20646;-47
2021/12/02 09:19:19;;;;;;;2.83;2.47;;;3.20;99.90;;;;;;5055683;28;20177;-46
2021/12/02 09:21:45;;;;;;;2.57;2.37;;;3.20;99.90;;;;;;5055043;28;20219;-48
2021/12/02 09:24:12;;;;;;;4.57;2.43;;;3.20;99.90;;;;;;5055413;28;20275;-48
2021/12/02 09:26:38;;;;;;;2.20;2.00;;;3.10;99.90;;;;;;5037231;28;20180;-46
2021/12/02 09:29:05;;;;;;;2.90;2.30;;;3.10;99.90;;;;;;5055062;28;20176;-48
2021/12/02 09:31:31;;;;;;;3.30;2.63;;;3.10;99.90;;;;;;5054817;28;20196;-49
2021/12/02 09:33:57;;;;;;;4.70;2.63;;;3.10;99.90;;;;;;5054872;28;20180;-47
2021/12/02 09:36:23;;;;;;;4.17;2.93;;;3.10;99.90;;;;;;5054863;28;20188;-47
2021/12/02 09:38:49;;;;;;;3.47;2.40;;;3.00;99.90;;;;;;5054840;28;20184;-49
2021/12/02 09:41:14;;;;;;;3.13;2.23;;;3.10;99.90;;;;;;5055211;28;20207;-44
2021/12/02 09:43:40;;;;;;;5.17;2.20;;;3.00;99.90;;;;;;5054996;28;20204;-48
2021/12/02 09:46:06;;;;;;;2.60;2.40;;;3.00;99.90;;;;;;5054662;28;20172;-47
2021/12/02 09:48:34;;;;;;;5.40;2.60;;;3.00;99.90;;;;;;5036788;28;20188;-47
2021/12/02 09:51:37;;;;;;;5.40;2.60;;;3.10;99.90;;;;;;5054463;28;20192;-47
2021/12/02 09:54:05;;;;;;;4.50;2.50;;;3.10;99.90;;;;;;5051222;28;20207;-46
2021/12/02 09:56:34;;;;;;;5.67;2.23;;;3.20;99.90;;;;;;5054850;28;20526;-45
2021/12/02 09:59:06;;;;;;;4.97;1.80;;;3.20;99.90;;;;;;5054400;28;20255;-46
2021/12/02 10:01:40;;;;;;;3.27;2.00;;;3.20;99.90;;;;;;5054568;28;20211;-46
2021/12/02 10:04:09;;;;;;;2.60;1.90;;;3.30;99.90;;;;;;5054551;28;20157;-48
2021/12/02 10:06:34;;;;;;;3.53;1.90;;;3.40;99.90;;;;;;5054514;28;20187;-45
2021/12/02 10:09:14;;;;;;;3.00;2.00;;;3.40;99.90;;;;;;5054174;28;20567;-46
2021/12/02 10:14:23;;;;;;;2.93;1.43;;;3.60;99.90;;;;;;5054421;28;20156;-48
2021/12/02 10:16:51;;;;;;;5.23;2.00;;;3.60;99.90;;;;;;5054630;28;20490;-48
2021/12/02 10:19:27;;;;;;;3.83;2.27;;;3.60;99.90;;;;;;5054207;28;20250;-46
2021/12/02 10:22:02;;;;;;;4.67;1.70;;;3.60;99.90;;;;;;5035807;28;20219;-46
2021/12/02 10:24:28;;;;;;;3.17;1.87;;;3.70;99.90;;;;;;5054161;28;20171;-47
2021/12/02 10:26:56;;;;;;;7.50;3.47;;;3.70;99.90;;;;;;5053834;28;20176;-46
2021/12/02 10:29:26;;;;;;;1.60;1.30;;;3.70;99.90;;;;;;5053783;28;20191;-47
2021/12/02 10:32:12;;;;;;;2.70;1.40;;;3.70;99.90;;;;;;5053582;28;20310;-46
2021/12/02 10:34:57;;;;;;;2.57;1.53;;;3.80;99.90;;;;;;5054037;28;20159;-46
2021/12/02 10:37:27;;;;;;;1.97;1.50;;;3.80;99.90;;;;;;5053930;28;20537;-44
2021/12/02 10:40:08;;;;;;;1.60;1.50;;;3.80;99.90;;;;;;5035309;28;20675;-48
2021/12/02 10:42:38;;;;;;;4.73;2.20;;;3.80;99.90;;;;;;5053708;28;20210;-48
2021/12/02 10:45:06;;;;;;;2.30;2.03;;;3.90;99.90;;;;;;5053417;28;20192;-47
2021/12/02 10:47:33;;;;;;;3.80;2.77;;;3.90;99.90;;;;;;5053388;28;20188;-45
2021/12/02 10:50:06;;;;;;;4.07;3.20;;;3.90;99.90;;;;;;5053462;28;20665;-45
2021/12/02 10:52:34;;;;;;;5.27;2.63;;;4.00;99.90;;;;;;5053328;28;20647;-48
2021/12/02 10:55:03;;;;;;;6.80;3.47;;;3.90;99.90;;;;;;5053582;28;20187;-45
2021/12/02 10:57:31;;;;;;;10.70;4.50;;;4.00;99.90;;;;;;5053589;28;20664;-47
2021/12/02 11:00:03;;;;;;;5.13;4.30;;;4.00;99.90;;;;;;5053210;28;20214;-47
2021/12/02 11:02:32;;;;;;;19.20;9.03;;;4.00;99.90;;;;;;5054048;28;20213;-47
2021/12/02 11:05:34;;;;;;;8.80;5.77;;;4.00;99.90;;;;;;5053240;28;20172;-49
2021/12/02 11:08:05;;;;;;;6.10;4.33;;;4.00;99.90;;;;;;5053178;28;20653;-46
2021/12/02 11:10:33;;;;;;;6.53;3.23;;;4.10;99.90;;;;;;5053314;28;20176;-47
2021/12/02 11:12:59;;;;;;;5.47;3.77;;;4.10;99.90;;;;;;5053018;28;20200;-46
2021/12/02 11:15:27;;;;;;;6.13;3.90;;;4.10;99.90;;;;;;5053110;28;20183;-45
2021/12/02 11:17:54;;;;;;;9.97;3.57;;;4.10;99.90;;;;;;5053289;28;20214;-47
2021/12/02 11:20:23;;;;;;;5.87;2.80;;;4.10;99.90;;;;;;5053244;28;20185;-45
2021/12/02 11:22:54;;;;;;;4.73;2.50;;;4.20;99.90;;;;;;5052857;28;20215;-47
2021/12/02 11:25:20;;;;;;;8.73;2.90;;;4.10;99.90;;;;;;5053280;28;20187;-46
2021/12/02 11:27:48;;;;;;;3.67;2.83;;;4.10;99.90;;;;;;5052800;28;20589;-46
2021/12/02 11:30:32;;;;;;;6.03;2.77;;;4.10;99.90;;;;;;5052883;28;20172;-46
2021/12/02 11:32:58;;;;;;;5.77;2.30;;;4.10;99.90;;;;;;5053149;28;20251;-49
2021/12/02 11:35:31;;;;;;;6.03;2.33;;;4.10;99.90;;;;;;5052943;28;20203;-46
2021/12/02 11:38:20;;;;;;;8.17;3.20;;;4.10;99.90;;;;;;5052959;28;20623;-46
2021/12/02 11:40:54;;;;;;;4.87;2.23;;;4.10;99.90;;;;;;5053206;28;20168;-46
2021/12/02 11:43:23;;;;;;;6.00;2.53;;;4.10;99.90;;;;;;5053063;28;20226;-46
2021/12/02 11:45:51;;;;;;;3.10;2.17;;;4.10;99.90;;;;;;5053450;28;20189;-48
2021/12/02 11:48:22;;;;;;;3.77;2.40;;;4.10;99.90;;;;;;5034953;28;20185;-45
2021/12/02 11:50:51;;;;;;;7.13;2.20;;;4.10;99.90;;;;;;5053858;28;20176;-46
2021/12/02 11:53:21;;;;;;;4.70;2.93;;;4.10;99.90;;;;;;5056986;28;20724;-47
2021/12/02 11:55:56;;;;;;;4.33;2.33;;;4.10;99.90;;;;;;5056672;28;20643;-47
2021/12/02 11:58:22;;;;;;;5.83;2.70;;;4.10;99.90;;;;;;5038823;28;20172;-47
2021/12/02 12:00:49;;;;;;;2.43;2.10;;;4.10;99.90;;;;;;5056717;28;20174;-48
2021/12/02 12:03:29;;;;;;;2.67;2.23;;;4.10;99.90;;;;;;5057131;28;20184;-45
2021/12/02 12:05:56;;;;;;;4.57;2.50;;;4.10;99.90;;;;;;5057222;28;20174;-46
2021/12/02 12:08:39;;;;;;;6.80;2.70;;;4.10;99.90;;;;;;5038815;28;20677;-46
2021/12/02 12:11:26;;;;;;;4.97;2.43;;;4.10;99.90;;;;;;5056991;28;20206;-46
2021/12/02 12:13:59;;;;;;;2.60;1.90;;;4.10;99.90;;;;;;5056530;28;20184;-45
2021/12/02 12:16:30;;;;;;;5.17;2.57;;;4.10;99.90;;;;;;5056953;28;20170;-49
2021/12/02 12:19:13;;;;;;;53.77;26.87;;;4.10;99.90;;;;;;5056833;28;20308;-47
2021/12/02 12:21:41;;;;;;;14.90;10.50;;;4.10;99.90;;;;;;5056502;28;20218;-46
2021/12/02 12:24:08;;;;;;;5.40;3.63;;;4.10;99.90;;;;;;5056188;28;20270;-48
2021/12/02 12:26:40;;;;;;;5.67;2.90;;;4.10;99.90;;;;;;5020576;28;20174;-45
2021/12/02 12:29:06;;;;;;;4.53;2.80;;;4.10;99.90;;;;;;5056039;28;20525;-45
2021/12/02 12:37:24;;;;;;;5.40;3.20;;;4.00;99.90;;;;;;5056265;28;20267;-48
2021/12/02 12:40:08;;;;;;;4.37;3.03;;;4.00;99.90;;;;;;5055797;28;20180;-47
2021/12/02 12:42:36;;;;;;;4.77;3.17;;;4.10;99.90;;;;;;5055856;28;20200;-48
2021/12/02 12:45:04;;;;;;;5.47;4.00;;;4.10;99.90;;;;;;5037986;28;20208;-47
2021/12/02 12:47:48;;;;;;;3.30;3.00;;;4.10;99.90;;;;;;5056045;28;20177;-45
2021/12/02 12:50:31;;;;;;;4.37;3.40;;;4.10;99.90;;;;;;5056079;28;20156;-46
2021/12/02 12:53:02;;;;;;;6.50;4.17;;;4.10;99.90;;;;;;5055581;28;20192;-48
2021/12/02 12:55:28;;;;;;;5.10;3.93;;;4.10;99.90;;;;;;5037981;28;20213;-47
2021/12/02 12:58:06;;;;;;;5.70;4.10;;;4.20;99.90;;;;;;5055706;28;20168;-46
2021/12/02 13:00:45;;;;;;;8.30;3.90;;;4.20;99.90;;;;;;5055412;28;20195;-46
2021/12/02 13:03:22;;;;;;;10.97;4.83;;;4.20;99.90;;;;;;5055044;28;20207;-48
2021/12/02 13:05:55;;;;;;;6.63;4.07;;;4.30;99.90;;;;;;5037663;28;20180;-45
2021/12/02 13:08:29;;;;;;;6.00;3.87;;;4.30;99.90;;;;;;5055750;28;20165;-47
2021/12/02 13:11:00;;;;;;;9.63;3.83;;;4.30;99.90;;;;;;5055456;28;20207;-48
2021/12/02 13:13:29;;;;;;;5.43;4.23;;;4.30;99.90;;;;;;5055433;28;20691;-49
2021/12/02 13:16:19;;;;;;;6.83;4.03;;;4.30;99.90;;;;;;5055230;28;20686;-47
2021/12/02 13:19:00;;;;;;;6.27;3.93;;;4.20;99.90;;;;;;5040452;28;20181;-48
2021/12/02 13:24:12;;;;;;;4.30;3.30;;;4.30;99.90;;;;;;5055347;28;20263;-48
2021/12/02 13:26:38;;;;;;;5.73;4.00;;;4.30;99.90;;;;;;5055020;28;20177;-45
2021/12/02 13:29:12;;;;;;;7.23;4.00;;;4.30;99.90;;;;;;5036997;28;20179;-46